Time;durP1;ratioP1;P1;durP2;ratioP2;P2;SDS_P1;SDS_P2;PMS_P1;PMS_P2;Temp;Humidity;BMP_temperature;BMP_pressure;BME280_temperature;BME280_humidity;BME280_pressure;Samples;Min_cycle;Max_cycle;Signal;HPM_P1;HPM_P2
2022/12/07 00:00:30;;;;;;;12.80;9.83;;;4.10;99.90;;;;;;5011424;28;20182;-71
2022/12/07 00:02:55;;;;;;;12.90;9.20;;;4.10;99.90;;;;;;5011773;28;20553;-71
2022/12/07 00:05:21;;;;;;;10.03;6.47;;;4.10;99.90;;;;;;5010968;28;20208;-71
2022/12/07 00:07:46;;;;;;;9.67;7.47;;;4.10;99.90;;;;;;5011916;28;20168;-71
2022/12/07 00:10:12;;;;;;;11.63;7.47;;;4.10;99.90;;;;;;5012030;28;20186;-71
2022/12/07 00:12:37;;;;;;;11.03;7.83;;;4.10;99.90;;;;;;5012175;28;20204;-71
2022/12/07 00:15:03;;;;;;;11.50;7.67;;;4.10;99.90;;;;;;5010911;28;20175;-71
2022/12/07 00:17:29;;;;;;;11.60;8.03;;;4.10;99.90;;;;;;5012391;28;20176;-71
2022/12/07 00:19:54;;;;;;;11.33;8.00;;;4.10;99.90;;;;;;5011653;28;20172;-71
2022/12/07 00:22:20;;;;;;;12.90;8.67;;;4.10;99.90;;;;;;5012043;28;20288;-71
2022/12/07 00:24:45;;;;;;;13.80;9.13;;;4.10;99.90;;;;;;5010822;28;20316;-70
2022/12/07 00:27:11;;;;;;;10.20;8.50;;;4.10;99.90;;;;;;5012009;28;20572;-71
2022/12/07 00:29:36;;;;;;;11.13;8.63;;;4.10;99.90;;;;;;5011490;28;20172;-71
2022/12/07 00:32:03;;;;;;;13.77;9.13;;;4.10;99.90;;;;;;5011260;28;20701;-71
2022/12/07 00:34:28;;;;;;;13.93;8.73;;;4.10;99.90;;;;;;5010961;28;20196;-71
2022/12/07 00:36:54;;;;;;;11.37;8.40;;;4.10;99.90;;;;;;5011472;28;20383;-72
2022/12/07 00:39:19;;;;;;;12.93;9.00;;;4.00;99.90;;;;;;5011217;28;20213;-72
2022/12/07 00:41:45;;;;;;;12.07;9.03;;;4.10;99.90;;;;;;5011257;28;20567;-70
2022/12/07 00:44:10;;;;;;;13.20;8.33;;;4.00;99.90;;;;;;5011177;28;20179;-71
2022/12/07 00:46:36;;;;;;;11.00;8.83;;;4.00;99.90;;;;;;5011468;28;20174;-71
2022/12/07 00:49:01;;;;;;;11.00;8.60;;;4.00;99.90;;;;;;5011119;28;20175;-71
2022/12/07 00:51:27;;;;;;;12.07;8.13;;;4.00;99.90;;;;;;5011218;28;20198;-70
2022/12/07 00:53:53;;;;;;;10.27;8.03;;;4.00;99.90;;;;;;4992752;28;20183;-71
2022/12/07 00:56:22;;;;;;;12.57;9.40;;;4.00;99.90;;;;;;5011304;28;20528;-71
2022/12/07 00:58:51;;;;;;;10.10;8.10;;;4.00;99.90;;;;;;5010747;28;20177;-70
2022/12/07 01:01:16;;;;;;;10.43;9.30;;;4.00;99.90;;;;;;5011169;28;20493;-71
2022/12/07 01:03:42;;;;;;;11.97;8.50;;;4.00;99.90;;;;;;5010994;28;20508;-71
2022/12/07 01:06:07;;;;;;;12.03;9.23;;;4.00;99.90;;;;;;5010000;28;20212;-71
2022/12/07 01:08:33;;;;;;;14.67;10.30;;;3.90;99.90;;;;;;5011214;28;20183;-71
2022/12/07 01:11:04;;;;;;;16.23;10.30;;;3.90;99.90;;;;;;5010754;28;20233;-71
2022/12/07 01:13:30;;;;;;;12.90;10.07;;;3.90;99.90;;;;;;5011004;28;20179;-70
2022/12/07 01:15:59;;;;;;;13.20;10.07;;;3.90;99.90;;;;;;5010216;28;20474;-71
2022/12/07 01:18:26;;;;;;;14.93;10.07;;;3.90;99.90;;;;;;5010352;28;20398;-69
2022/12/07 01:21:05;;;;;;;13.33;8.90;;;3.80;99.90;;;;;;5010522;28;20390;-71
2022/12/07 01:23:31;;;;;;;12.70;8.40;;;3.80;99.90;;;;;;5010833;28;20457;-69
2022/12/07 01:25:58;;;;;;;11.47;8.93;;;3.80;99.90;;;;;;5010031;28;20437;-71
2022/12/07 01:28:24;;;;;;;14.60;9.53;;;3.80;99.90;;;;;;5010287;28;20407;-71
2022/12/07 01:31:04;;;;;;;13.40;8.90;;;3.80;99.90;;;;;;5010378;28;20408;-71
2022/12/07 01:33:32;;;;;;;14.13;9.40;;;3.80;99.90;;;;;;5010680;28;20419;-71
2022/12/07 01:36:26;;;;;;;11.23;8.60;;;3.80;99.90;;;;;;5009874;28;20443;-71
2022/12/07 01:38:56;;;;;;;11.30;7.73;;;3.80;99.90;;;;;;5007530;28;20784;-71
2022/12/07 01:41:23;;;;;;;10.77;8.10;;;3.80;99.90;;;;;;5010153;28;20428;-71
2022/12/07 01:44:10;;;;;;;11.80;8.97;;;3.80;99.90;;;;;;5010438;28;20507;-71
2022/12/07 01:46:36;;;;;;;12.47;8.37;;;3.80;99.90;;;;;;4991954;28;20437;-70
2022/12/07 01:49:05;;;;;;;13.13;9.30;;;3.80;99.90;;;;;;5008340;28;20391;-71
2022/12/07 01:51:30;;;;;;;13.50;8.40;;;3.80;99.90;;;;;;5009889;28;20494;-68
2022/12/07 01:53:56;;;;;;;13.17;9.70;;;3.80;99.90;;;;;;5009740;28;20775;-69
2022/12/07 01:56:26;;;;;;;13.40;9.20;;;3.80;99.90;;;;;;5010607;28;20185;-71
2022/12/07 01:58:54;;;;;;;12.50;8.63;;;3.80;99.90;;;;;;5010151;28;20150;-71
2022/12/07 03:32:38;;;;;;;10.90;7.97;;;3.50;99.90;;;;;;5496108;23;20501;-70
2022/12/07 03:35:10;;;;;;;10.37;7.33;;;3.50;99.90;;;;;;5003965;28;20824;-71
2022/12/07 03:37:54;;;;;;;11.73;7.73;;;3.40;99.90;;;;;;5012413;28;20445;-70
2022/12/07 03:40:39;;;;;;;13.33;8.00;;;3.50;99.90;;;;;;5011441;28;20420;-70
2022/12/07 03:43:05;;;;;;;12.70;7.80;;;3.40;99.90;;;;;;4984197;28;20445;-71
2022/12/07 03:45:39;;;;;;;11.80;8.00;;;3.40;99.90;;;;;;4991733;28;20535;-68
2022/12/07 03:48:39;;;;;;;11.20;8.17;;;3.40;99.90;;;;;;4981538;28;20530;-70
2022/12/07 03:51:11;;;;;;;13.40;8.37;;;3.40;99.90;;;;;;4973094;28;20433;-70
2022/12/07 03:53:43;;;;;;;12.00;7.50;;;3.40;99.90;;;;;;4973683;28;20424;-70
2022/12/07 03:56:10;;;;;;;11.13;7.50;;;3.30;99.90;;;;;;4972762;28;20387;-70
2022/12/07 03:58:36;;;;;;;11.70;8.03;;;3.30;99.90;;;;;;4973362;28;20407;-69
2022/12/07 04:01:02;;;;;;;8.73;6.67;;;3.30;99.90;;;;;;4972696;28;20438;-70
2022/12/07 04:03:28;;;;;;;11.67;7.90;;;3.20;99.90;;;;;;4972333;28;20793;-70
2022/12/07 04:05:54;;;;;;;10.13;7.60;;;3.20;99.90;;;;;;4972549;28;20296;-70
2022/12/07 04:08:19;;;;;;;10.57;7.67;;;3.10;99.90;;;;;;4973036;28;20325;-70
2022/12/07 04:10:45;;;;;;;9.23;6.23;;;3.10;99.90;;;;;;4973222;28;20486;-70
2022/12/07 04:13:10;;;;;;;10.87;6.03;;;3.10;99.90;;;;;;4955002;28;20172;-69
2022/12/07 04:15:36;;;;;;;11.03;6.60;;;3.10;99.90;;;;;;4972043;28;20290;-70
2022/12/07 04:18:01;;;;;;;8.73;6.10;;;3.10;99.90;;;;;;4973035;28;20229;-70
2022/12/07 04:20:27;;;;;;;8.10;6.57;;;3.00;99.90;;;;;;4972972;28;20196;-70
2022/12/07 04:22:52;;;;;;;7.60;5.93;;;3.10;99.90;;;;;;4972730;28;20204;-70
2022/12/07 04:25:18;;;;;;;9.43;5.70;;;3.00;99.90;;;;;;4972065;28;20759;-70
2022/12/07 04:27:43;;;;;;;9.33;6.47;;;3.00;99.90;;;;;;4972615;28;20181;-71
2022/12/07 04:30:09;;;;;;;7.17;5.23;;;3.00;99.90;;;;;;4972586;28;20724;-70
2022/12/07 04:32:35;;;;;;;7.10;5.00;;;3.00;99.90;;;;;;4955155;28;20984;-70
2022/12/07 04:35:00;;;;;;;11.07;7.30;;;3.00;99.90;;;;;;4971577;28;20177;-69
2022/12/07 04:37:26;;;;;;;8.57;6.37;;;3.00;99.90;;;;;;4972647;28;20746;-70
2022/12/07 04:39:51;;;;;;;5.33;4.83;;;3.10;99.90;;;;;;4972435;28;20680;-69
2022/12/07 04:42:17;;;;;;;3.33;3.03;;;3.10;99.90;;;;;;4972182;28;20201;-70
2022/12/07 04:44:42;;;;;;;5.73;4.00;;;3.10;99.90;;;;;;4973041;28;20203;-70
2022/12/07 04:47:08;;;;;;;5.50;4.33;;;3.10;99.90;;;;;;4973885;28;20244;-70
2022/12/07 04:49:34;;;;;;;4.77;3.13;;;3.20;99.90;;;;;;4973181;28;20179;-70
2022/12/07 04:51:59;;;;;;;4.53;4.03;;;3.20;99.90;;;;;;4972645;28;20198;-70
2022/12/07 04:54:25;;;;;;;6.80;5.37;;;3.10;99.90;;;;;;4971563;28;20543;-70
2022/12/07 04:56:50;;;;;;;5.63;5.13;;;3.10;99.90;;;;;;4972214;28;20231;-68
2022/12/07 04:59:17;;;;;;;5.13;4.57;;;3.10;99.90;;;;;;4972212;28;20173;-70
2022/12/07 05:01:43;;;;;;;9.13;4.30;;;3.10;99.90;;;;;;4972106;28;20199;-70
2022/12/07 05:04:09;;;;;;;3.77;3.47;;;3.10;99.90;;;;;;4971471;28;20411;-70
2022/12/07 05:06:34;;;;;;;4.17;3.50;;;3.10;99.90;;;;;;4971854;28;20489;-69
2022/12/07 05:09:02;;;;;;;6.20;4.30;;;3.00;99.90;;;;;;4974909;28;20896;-70
2022/12/07 05:11:40;;;;;;;5.53;4.20;;;3.10;99.90;;;;;;4991244;28;20428;-70
2022/12/07 05:14:16;;;;;;;3.77;3.30;;;3.10;99.90;;;;;;4990689;28;20503;-70
2022/12/07 05:16:42;;;;;;;5.13;4.10;;;3.00;99.90;;;;;;4991510;28;20434;-70
2022/12/07 05:19:08;;;;;;;5.17;4.20;;;3.00;99.90;;;;;;4991330;28;20382;-71
2022/12/07 05:21:35;;;;;;;4.57;3.73;;;2.90;99.90;;;;;;4991031;28;20411;-70
2022/12/07 05:24:00;;;;;;;5.27;3.83;;;2.80;99.90;;;;;;4990667;28;20507;-71
2022/12/07 05:26:26;;;;;;;6.10;4.47;;;2.80;99.90;;;;;;4990806;28;20545;-71
2022/12/07 05:28:53;;;;;;;5.03;4.30;;;2.80;99.90;;;;;;4991230;28;20644;-70
2022/12/07 05:31:19;;;;;;;5.40;4.60;;;2.80;99.90;;;;;;4990317;28;20217;-69
2022/12/07 05:33:45;;;;;;;8.50;5.60;;;2.70;99.90;;;;;;4991280;28;20882;-70
2022/12/07 05:36:11;;;;;;;8.50;6.07;;;2.70;99.90;;;;;;4990326;28;20416;-69
2022/12/07 05:38:36;;;;;;;9.80;7.17;;;2.70;99.90;;;;;;4991101;28;20192;-70
2022/12/07 05:41:03;;;;;;;12.53;6.23;;;2.60;99.90;;;;;;4990959;28;20263;-70
2022/12/07 05:43:29;;;;;;;8.40;5.97;;;2.50;99.90;;;;;;4990278;28;20242;-67
2022/12/07 05:45:55;;;;;;;7.00;5.73;;;2.50;99.90;;;;;;4978714;28;20853;-71
2022/12/07 05:48:20;;;;;;;7.67;5.73;;;2.50;99.90;;;;;;4990885;28;20423;-70
2022/12/07 05:50:50;;;;;;;8.73;6.33;;;2.40;99.90;;;;;;4990686;28;20179;-70
2022/12/07 05:53:16;;;;;;;10.20;6.27;;;2.40;99.90;;;;;;4990395;28;20179;-70
2022/12/07 05:55:42;;;;;;;13.23;7.00;;;2.30;99.90;;;;;;4990149;28;20432;-70
2022/12/07 06:00:53;;;;;;;10.40;7.10;;;2.30;99.90;;;;;;4990596;28;20515;-68
2022/12/07 06:03:19;;;;;;;13.37;7.60;;;2.30;99.90;;;;;;4990175;28;20497;-71
2022/12/07 06:05:44;;;;;;;8.10;6.83;;;2.40;99.90;;;;;;4990203;28;20552;-71
2022/12/07 06:08:10;;;;;;;8.90;6.73;;;2.30;99.90;;;;;;4990791;28;20187;-68
2022/12/07 06:10:35;;;;;;;8.50;6.77;;;2.30;99.90;;;;;;4990643;28;20183;-70
2022/12/07 06:13:01;;;;;;;8.80;6.27;;;2.30;99.90;;;;;;4990191;28;20517;-69
2022/12/07 06:15:26;;;;;;;12.60;7.03;;;2.40;99.90;;;;;;4989892;28;20582;-70
2022/12/07 06:17:52;;;;;;;10.67;6.87;;;2.40;99.90;;;;;;4990818;28;20177;-70
2022/12/07 06:20:17;;;;;;;11.83;7.10;;;2.40;99.90;;;;;;4990568;28;20596;-70
2022/12/07 06:22:43;;;;;;;9.07;6.23;;;2.40;99.90;;;;;;4990416;28;20205;-70
2022/12/07 06:25:09;;;;;;;10.83;7.27;;;2.50;99.90;;;;;;4990020;28;20203;-69
2022/12/07 06:27:35;;;;;;;9.70;6.90;;;2.50;99.90;;;;;;4990524;28;20176;-70
2022/12/07 06:30:06;;;;;;;10.43;6.90;;;2.50;99.90;;;;;;4990808;28;20419;-70
2022/12/07 06:32:32;;;;;;;7.37;6.03;;;2.60;99.90;;;;;;4989645;28;20225;-69
2022/12/07 06:34:58;;;;;;;16.07;6.03;;;2.60;99.90;;;;;;4990025;28;20398;-70
2022/12/07 06:37:23;;;;;;;8.27;6.60;;;2.60;99.90;;;;;;4990499;28;20938;-70
2022/12/07 06:39:49;;;;;;;10.17;6.23;;;2.60;99.90;;;;;;4990806;28;20718;-70
2022/12/07 06:42:14;;;;;;;10.07;6.43;;;2.60;99.90;;;;;;4989562;28;20288;-69
2022/12/07 06:44:40;;;;;;;10.23;5.80;;;2.60;99.90;;;;;;4972582;28;20216;-70
2022/12/07 06:47:07;;;;;;;8.70;5.80;;;2.60;99.90;;;;;;4990481;28;20641;-70
2022/12/07 06:49:33;;;;;;;12.20;6.30;;;2.60;99.90;;;;;;4990203;28;20268;-68
2022/12/07 06:51:59;;;;;;;9.20;6.13;;;2.60;99.90;;;;;;4991330;28;20527;-69
2022/12/07 06:54:24;;;;;;;7.97;5.40;;;2.50;99.90;;;;;;4990446;28;20179;-68
2022/12/07 06:56:50;;;;;;;8.10;5.70;;;2.60;99.90;;;;;;4991124;28;20185;-67
2022/12/07 06:59:15;;;;;;;7.60;5.93;;;2.60;99.90;;;;;;4992700;28;20548;-69
2022/12/07 07:01:41;;;;;;;8.00;5.33;;;2.60;99.90;;;;;;4993861;28;20226;-69
2022/12/07 07:04:06;;;;;;;8.70;6.57;;;2.70;99.90;;;;;;4993398;28;20193;-69
2022/12/07 07:06:32;;;;;;;8.00;5.40;;;2.70;99.90;;;;;;4992998;28;20204;-68
2022/12/07 07:08:57;;;;;;;10.37;6.57;;;2.70;99.90;;;;;;4993817;28;20184;-70
2022/12/07 07:11:23;;;;;;;6.33;5.07;;;2.80;99.90;;;;;;4992614;28;20204;-69
2022/12/07 07:13:48;;;;;;;8.00;5.27;;;2.80;99.90;;;;;;4993701;28;20237;-69
2022/12/07 07:16:15;;;;;;;5.50;4.90;;;2.80;99.90;;;;;;4988062;28;20183;-69
2022/12/07 07:18:41;;;;;;;6.07;5.10;;;2.90;99.90;;;;;;4993743;28;20240;-69
2022/12/07 07:21:06;;;;;;;8.33;4.90;;;3.00;99.90;;;;;;4992707;28;20966;-69
2022/12/07 07:23:32;;;;;;;4.50;3.80;;;3.00;99.90;;;;;;4993022;28;20222;-69
2022/12/07 07:25:57;;;;;;;5.17;4.37;;;3.00;99.90;;;;;;4992353;28;20287;-69
2022/12/07 07:28:23;;;;;;;5.53;4.40;;;3.10;99.90;;;;;;4993363;28;20180;-69
2022/12/07 07:30:48;;;;;;;8.50;5.30;;;3.10;99.90;;;;;;4975320;28;20178;-69
2022/12/07 07:33:14;;;;;;;6.40;4.50;;;3.10;99.90;;;;;;4993056;28;20666;-69
2022/12/07 07:35:40;;;;;;;5.40;4.00;;;3.20;99.90;;;;;;4992054;28;20208;-69
2022/12/07 07:38:06;;;;;;;4.10;3.50;;;3.20;99.90;;;;;;4993108;28;20503;-69
2022/12/07 07:40:32;;;;;;;5.87;4.23;;;3.30;99.90;;;;;;4992685;28;20213;-69
2022/12/07 07:42:58;;;;;;;7.53;5.03;;;3.30;99.90;;;;;;4992991;28;21005;-69
2022/12/07 07:45:25;;;;;;;7.13;4.27;;;3.30;99.90;;;;;;4992061;28;20252;-69
2022/12/07 07:47:51;;;;;;;4.60;4.10;;;3.30;99.90;;;;;;4992377;28;20428;-67
2022/12/07 07:50:17;;;;;;;10.03;4.03;;;3.40;99.90;;;;;;4992790;28;20954;-69
2022/12/07 07:52:42;;;;;;;6.00;4.33;;;3.40;99.90;;;;;;4992686;28;20331;-69
2022/12/07 07:55:08;;;;;;;4.93;4.17;;;3.40;99.90;;;;;;4992180;28;20898;-69
2022/12/07 07:57:35;;;;;;;4.90;4.23;;;3.50;99.90;;;;;;4992466;28;20186;-70
2022/12/07 08:00:03;;;;;;;5.10;4.60;;;3.50;99.90;;;;;;4992181;28;20203;-69
2022/12/07 08:02:29;;;;;;;5.43;4.53;;;3.50;99.90;;;;;;4992396;28;20451;-70
2022/12/07 08:04:55;;;;;;;5.40;3.90;;;3.60;99.90;;;;;;4991981;28;20538;-69
2022/12/07 08:07:20;;;;;;;6.13;4.07;;;3.60;99.90;;;;;;4992495;28;20426;-69
2022/12/07 08:09:46;;;;;;;3.83;3.53;;;3.70;99.90;;;;;;4991567;28;20193;-70
2022/12/07 08:12:11;;;;;;;6.10;4.30;;;3.70;99.90;;;;;;4992055;28;20204;-68
2022/12/07 08:14:37;;;;;;;4.93;3.73;;;3.80;99.90;;;;;;4991118;28;20193;-70
2022/12/07 08:17:02;;;;;;;5.77;3.90;;;3.80;99.90;;;;;;4992458;28;20187;-70
2022/12/07 08:19:28;;;;;;;6.43;4.60;;;3.90;99.90;;;;;;4991817;28;20237;-70
2022/12/07 08:21:55;;;;;;;4.27;3.60;;;3.90;99.90;;;;;;4992154;28;20201;-71
2022/12/07 08:24:21;;;;;;;6.77;4.17;;;3.90;99.90;;;;;;4991875;28;20178;-70
2022/12/07 08:26:46;;;;;;;6.30;4.90;;;4.00;99.90;;;;;;4991670;28;20433;-70
2022/12/07 08:29:12;;;;;;;5.97;4.53;;;4.10;99.90;;;;;;4992014;28;20265;-70
2022/12/07 08:31:37;;;;;;;6.47;4.63;;;4.20;99.90;;;;;;4991901;28;20735;-70
2022/12/07 08:34:03;;;;;;;3.80;3.43;;;4.20;99.90;;;;;;4992123;28;20274;-70
2022/12/07 08:36:29;;;;;;;12.23;4.67;;;4.20;99.90;;;;;;4990941;28;20201;-70
2022/12/07 08:38:54;;;;;;;7.17;3.63;;;4.20;99.90;;;;;;4992139;28;20189;-70
2022/12/07 08:41:20;;;;;;;9.20;4.53;;;4.40;99.90;;;;;;4992938;28;20296;-70
2022/12/07 08:43:45;;;;;;;6.40;4.20;;;4.40;99.90;;;;;;4993964;28;20178;-70
2022/12/07 08:46:19;;;;;;;6.70;4.23;;;4.50;99.90;;;;;;4990988;28;20290;-68
2022/12/07 08:49:01;;;;;;;6.23;4.33;;;4.60;99.90;;;;;;4991375;28;20710;-70
2022/12/07 08:51:27;;;;;;;4.43;3.50;;;4.70;99.90;;;;;;4991337;28;20419;-70
2022/12/07 08:53:55;;;;;;;4.33;3.70;;;4.70;99.90;;;;;;4991775;28;20477;-70
2022/12/07 08:56:21;;;;;;;6.47;3.90;;;4.70;99.90;;;;;;4990403;28;20218;-70
2022/12/07 08:58:47;;;;;;;6.53;3.63;;;4.80;99.90;;;;;;4991365;28;20425;-69
2022/12/07 09:01:13;;;;;;;5.77;3.50;;;4.80;99.90;;;;;;4990522;28;20449;-70
2022/12/07 09:03:38;;;;;;;5.00;4.10;;;4.90;99.90;;;;;;4990548;28;20507;-70
2022/12/07 09:06:04;;;;;;;5.80;3.97;;;5.00;99.90;;;;;;4990861;28;20322;-70
2022/12/07 09:08:34;;;;;;;5.43;3.23;;;5.00;99.90;;;;;;4990811;28;20186;-68
2022/12/07 09:11:00;;;;;;;5.83;4.20;;;5.10;99.90;;;;;;4991531;28;20416;-71
2022/12/07 09:13:25;;;;;;;3.93;3.50;;;5.10;99.90;;;;;;4991267;28;20421;-71
2022/12/07 09:15:51;;;;;;;5.67;3.80;;;5.10;99.90;;;;;;4990801;28;20584;-68
2022/12/07 09:18:16;;;;;;;3.33;3.03;;;5.20;99.90;;;;;;4990927;28;20603;-71
2022/12/07 09:20:42;;;;;;;4.30;3.50;;;5.20;99.90;;;;;;4991155;28;20187;-71
2022/12/07 09:23:08;;;;;;;5.73;3.33;;;5.30;99.90;;;;;;4991263;28;20242;-70
2022/12/07 09:25:34;;;;;;;5.47;3.80;;;5.30;99.90;;;;;;4990214;28;20210;-71
2022/12/07 09:28:00;;;;;;;8.10;3.80;;;5.40;99.90;;;;;;4990687;28;20187;-71
2022/12/07 09:30:26;;;;;;;4.40;2.90;;;5.40;99.90;;;;;;4990889;28;20384;-70
2022/12/07 09:32:56;;;;;;;4.40;3.63;;;5.50;99.90;;;;;;4990890;28;20953;-71
2022/12/07 09:35:23;;;;;;;3.20;2.90;;;5.60;99.90;;;;;;4973049;28;20457;-70
2022/12/07 09:37:49;;;;;;;3.20;2.90;;;5.60;99.90;;;;;;4990906;28;20420;-71
2022/12/07 09:40:16;;;;;;;4.47;3.50;;;5.70;99.90;;;;;;4990207;28;20480;-70
2022/12/07 09:42:47;;;;;;;9.43;3.70;;;5.70;99.90;;;;;;4990931;28;20520;-70
2022/12/07 09:45:20;;;;;;;3.70;3.40;;;5.80;99.90;;;;;;4989994;28;20456;-70
2022/12/07 09:47:46;;;;;;;4.20;3.00;;;5.80;99.90;;;;;;4991175;28;20426;-71
2022/12/07 09:50:25;;;;;;;3.50;2.90;;;5.90;99.90;;;;;;4990803;28;20389;-70
2022/12/07 09:52:52;;;;;;;3.70;3.10;;;5.90;99.90;;;;;;4990161;28;20198;-70
2022/12/07 09:55:29;;;;;;;3.73;2.90;;;5.90;99.90;;;;;;4990041;28;20393;-71
2022/12/07 09:57:56;;;;;;;3.13;2.30;;;5.80;99.90;;;;;;4990854;28;20503;-71
2022/12/07 10:00:23;;;;;;;4.77;3.00;;;5.80;99.90;;;;;;4990558;28;20423;-71
2022/12/07 10:03:01;;;;;;;3.87;2.90;;;5.80;99.90;;;;;;4990897;28;20444;-71
2022/12/07 10:05:40;;;;;;;4.57;3.20;;;5.70;99.90;;;;;;4971691;28;21054;-71
2022/12/07 10:08:07;;;;;;;3.30;3.00;;;5.70;99.90;;;;;;4991315;28;20422;-72
2022/12/07 10:10:34;;;;;;;4.93;2.93;;;5.80;99.90;;;;;;4973056;28;20468;-71
2022/12/07 10:13:08;;;;;;;4.90;3.53;;;5.70;99.90;;;;;;4990868;28;20896;-72
2022/12/07 10:15:52;;;;;;;4.47;3.43;;;5.60;99.90;;;;;;4989925;28;20401;-72
2022/12/07 10:18:21;;;;;;;7.63;3.60;;;5.70;99.90;;;;;;4990180;28;20438;-71
2022/12/07 10:20:48;;;;;;;5.10;4.33;;;5.80;99.90;;;;;;4990715;28;20455;-71
2022/12/07 10:23:17;;;;;;;3.90;3.17;;;5.80;99.90;;;;;;4990684;28;20394;-71
2022/12/07 10:25:44;;;;;;;5.77;4.13;;;5.80;99.90;;;;;;4989688;28;20471;-71
2022/12/07 10:28:18;;;;;;;4.87;3.73;;;5.90;99.90;;;;;;4990088;28;20420;-71
2022/12/07 10:30:49;;;;;;;5.37;4.00;;;6.10;99.90;;;;;;4990910;28;20417;-72
2022/12/07 10:33:31;;;;;;;5.10;3.90;;;6.20;99.90;;;;;;4994443;28;20826;-71
2022/12/07 10:35:57;;;;;;;5.50;4.00;;;6.20;99.90;;;;;;4993606;28;20401;-72
2022/12/07 10:38:26;;;;;;;7.00;4.83;;;6.30;99.90;;;;;;4993697;28;20832;-72
2022/12/07 10:41:06;;;;;;;5.30;3.77;;;6.30;99.90;;;;;;4994136;28;20423;-71
2022/12/07 10:43:32;;;;;;;4.77;3.67;;;6.10;99.90;;;;;;4994217;28;20429;-71
2022/12/07 10:46:16;;;;;;;6.80;5.13;;;6.00;99.90;;;;;;4993723;28;20440;-72
2022/12/07 10:49:03;;;;;;;7.27;5.33;;;6.00;99.90;;;;;;4994380;28;20418;-72
2022/12/07 10:51:36;;;;;;;4.43;4.00;;;5.90;99.90;;;;;;4993381;28;20533;-72
2022/12/07 10:54:29;;;;;;;4.90;4.07;;;5.90;99.90;;;;;;4994091;28;20479;-71
2022/12/07 10:57:21;;;;;;;4.00;3.50;;;5.90;99.90;;;;;;4993695;28;20389;-71
2022/12/07 11:00:22;;;;;;;5.07;4.13;;;5.80;99.90;;;;;;4993330;28;20813;-71
2022/12/07 11:03:11;;;;;;;4.20;3.00;;;5.80;99.90;;;;;;4993673;28;20477;-71
2022/12/07 11:05:51;;;;;;;3.57;2.17;;;5.80;99.90;;;;;;4993072;28;20991;-71
2022/12/07 11:08:38;;;;;;;2.80;2.27;;;5.80;99.90;;;;;;4993724;28;20507;-71
2022/12/07 11:11:26;;;;;;;3.13;2.67;;;5.80;99.90;;;;;;4993811;28;20943;-71
2022/12/07 11:14:14;;;;;;;5.70;2.70;;;5.80;99.90;;;;;;4993202;28;20407;-71
2022/12/07 11:16:48;;;;;;;4.07;2.43;;;5.90;99.90;;;;;;4993185;28;20384;-72
2022/12/07 11:19:26;;;;;;;4.00;3.10;;;5.90;99.90;;;;;;4993460;28;20450;-71
2022/12/07 11:21:51;;;;;;;3.53;2.97;;;5.90;99.90;;;;;;4993409;28;20430;-69
2022/12/07 11:24:25;;;;;;;3.27;2.97;;;6.00;99.90;;;;;;4993221;28;20414;-71
2022/12/07 11:27:09;;;;;;;2.67;2.47;;;6.10;99.90;;;;;;4993110;28;20183;-70
2022/12/07 11:29:47;;;;;;;2.17;1.97;;;6.00;99.90;;;;;;4993279;28;20825;-71
2022/12/07 11:32:21;;;;;;;2.77;2.40;;;5.90;99.90;;;;;;4992928;28;20443;-71
2022/12/07 11:35:04;;;;;;;3.10;2.40;;;5.80;99.90;;;;;;4992914;28;20424;-70
2022/12/07 11:37:33;;;;;;;3.67;2.93;;;5.80;99.90;;;;;;4993059;28;20410;-69
2022/12/07 11:40:11;;;;;;;6.13;4.57;;;5.90;99.90;;;;;;4992467;28;20423;-71
2022/12/07 11:42:42;;;;;;;5.87;4.40;;;5.90;99.90;;;;;;4992581;28;20432;-71
2022/12/07 11:45:23;;;;;;;6.83;4.23;;;5.90;99.90;;;;;;4992886;28;20457;-72
2022/12/07 11:48:03;;;;;;;12.60;5.03;;;5.90;99.90;;;;;;4993980;28;20414;-71
2022/12/07 11:50:34;;;;;;;5.40;4.40;;;5.80;99.90;;;;;;4993412;28;20848;-72
2022/12/07 11:53:09;;;;;;;9.03;4.50;;;5.70;99.90;;;;;;4993427;28;20461;-71
2022/12/07 11:55:47;;;;;;;5.50;4.70;;;5.60;99.90;;;;;;4993211;28;20445;-71
2022/12/07 11:58:34;;;;;;;5.03;4.53;;;5.50;99.90;;;;;;4993285;28;20397;-71
2022/12/07 12:01:19;;;;;;;5.50;5.00;;;5.60;99.90;;;;;;4992784;28;20401;-72
2022/12/07 12:03:53;;;;;;;6.87;4.50;;;5.60;99.90;;;;;;4993179;28;20755;-71
2022/12/07 12:06:20;;;;;;;7.27;5.07;;;5.70;99.90;;;;;;4992011;28;20447;-71
2022/12/07 12:08:58;;;;;;;5.83;4.70;;;5.70;99.90;;;;;;4992424;28;20465;-71
2022/12/07 12:12:00;;;;;;;5.60;4.57;;;5.80;99.90;;;;;;4992753;28;20421;-71
2022/12/07 12:14:57;;;;;;;5.43;4.67;;;5.80;99.90;;;;;;4992448;28;20435;-71
2022/12/07 12:17:48;;;;;;;6.63;5.80;;;5.80;99.90;;;;;;4992246;28;20403;-71
2022/12/07 12:20:32;;;;;;;9.50;5.57;;;5.80;99.90;;;;;;4994122;28;20467;-71
2022/12/07 12:22:59;;;;;;;10.70;5.10;;;5.80;99.90;;;;;;4992865;28;20432;-72
2022/12/07 12:25:29;;;;;;;7.30;5.93;;;5.80;99.90;;;;;;4991512;28;20488;-71
2022/12/07 12:27:58;;;;;;;5.70;4.90;;;5.70;99.90;;;;;;4992411;28;20395;-71
2022/12/07 12:30:37;;;;;;;6.80;3.90;;;5.70;99.90;;;;;;4974546;28;20975;-72
2022/12/07 12:33:29;;;;;;;5.77;4.90;;;5.60;99.90;;;;;;4992216;28;21080;-71
2022/12/07 12:36:22;;;;;;;8.37;5.47;;;5.60;99.90;;;;;;4991056;28;20397;-71
2022/12/07 12:39:06;;;;;;;9.80;6.00;;;5.60;99.90;;;;;;4974798;28;20419;-72
2022/12/07 12:41:38;;;;;;;12.23;9.33;;;5.60;99.90;;;;;;4991770;28;20498;-72
2022/12/07 12:44:29;;;;;;;5.83;4.97;;;5.60;99.90;;;;;;4991985;28;20763;-72
2022/12/07 12:46:56;;;;;;;6.00;4.53;;;5.60;99.90;;;;;;4990837;28;20422;-71
2022/12/07 12:49:22;;;;;;;6.53;5.10;;;5.60;99.90;;;;;;4978734;28;20444;-72
2022/12/07 12:51:58;;;;;;;5.87;4.97;;;5.70;99.90;;;;;;4971239;28;20529;-72
2022/12/07 12:54:36;;;;;;;8.93;5.50;;;5.70;99.90;;;;;;4971357;28;20231;-72
2022/12/07 12:57:26;;;;;;;7.27;5.67;;;5.70;99.90;;;;;;4970968;28;20382;-72
2022/12/07 12:59:52;;;;;;;5.90;5.27;;;5.80;99.90;;;;;;4971817;28;20437;-71
2022/12/07 13:02:25;;;;;;;7.70;5.80;;;5.80;99.90;;;;;;4971734;28;20944;-72
2022/12/07 13:04:58;;;;;;;6.77;4.40;;;5.80;99.90;;;;;;4970933;28;20195;-70
2022/12/07 13:07:49;;;;;;;5.80;4.17;;;5.80;99.90;;;;;;4971695;28;20384;-72
2022/12/07 13:10:23;;;;;;;6.37;4.90;;;5.80;99.90;;;;;;4971665;28;20382;-72
2022/12/07 13:13:09;;;;;;;6.90;5.43;;;5.80;99.90;;;;;;4971833;28;20938;-72
2022/12/07 13:15:38;;;;;;;5.13;4.40;;;5.70;99.90;;;;;;4970683;28;20415;-71
2022/12/07 13:18:22;;;;;;;8.80;5.10;;;5.60;99.90;;;;;;4971875;28;20840;-72
2022/12/07 13:20:49;;;;;;;4.40;3.97;;;5.70;99.90;;;;;;4971644;28;20397;-72
2022/12/07 13:23:19;;;;;;;11.00;5.27;;;5.70;99.90;;;;;;4971457;28;20507;-72
2022/12/07 13:25:55;;;;;;;6.40;5.27;;;5.60;99.90;;;;;;4970488;28;20454;-72
2022/12/07 13:28:26;;;;;;;5.03;4.30;;;5.70;99.90;;;;;;4971603;28;20920;-72
2022/12/07 13:31:24;;;;;;;5.03;4.40;;;5.70;99.90;;;;;;4971328;28;20721;-70
2022/12/07 13:33:50;;;;;;;6.40;5.60;;;5.70;99.90;;;;;;4971742;28;20449;-69
2022/12/07 13:36:24;;;;;;;8.13;6.03;;;5.70;99.90;;;;;;4970859;28;20423;-72
2022/12/07 13:38:56;;;;;;;6.20;4.50;;;5.70;99.90;;;;;;4972423;28;20241;-69
2022/12/07 13:41:27;;;;;;;7.93;5.63;;;5.60;99.90;;;;;;4971291;28;20426;-72
2022/12/07 13:44:17;;;;;;;6.90;5.23;;;5.60;99.90;;;;;;4971435;28;20789;-71
2022/12/07 13:46:49;;;;;;;6.37;4.87;;;5.50;99.90;;;;;;4970775;28;20497;-72
2022/12/07 13:49:21;;;;;;;6.20;5.60;;;5.50;99.90;;;;;;4979727;28;20422;-71
2022/12/07 13:51:47;;;;;;;6.17;5.50;;;5.60;99.90;;;;;;4990851;28;20528;-72
2022/12/07 13:54:14;;;;;;;8.17;5.93;;;5.60;99.90;;;;;;4990597;28;20906;-71
2022/12/07 13:56:39;;;;;;;15.17;6.10;;;5.50;99.90;;;;;;4990024;28;20441;-72
2022/12/07 13:59:16;;;;;;;7.60;5.70;;;5.50;99.90;;;;;;4989093;28;20825;-72
2022/12/07 14:01:43;;;;;;;8.50;5.53;;;5.50;99.90;;;;;;4990644;28;20204;-72
2022/12/07 14:04:19;;;;;;;8.90;5.50;;;5.40;99.90;;;;;;4990597;28;20999;-73
2022/12/07 14:06:51;;;;;;;7.97;5.73;;;5.40;99.90;;;;;;4990764;28;20520;-72
2022/12/07 14:09:19;;;;;;;8.97;6.40;;;5.40;99.90;;;;;;4989050;28;20415;-71
2022/12/07 14:11:47;;;;;;;14.63;6.40;;;5.40;99.90;;;;;;4974970;28;20468;-72
2022/12/07 14:14:20;;;;;;;7.50;5.33;;;5.40;99.90;;;;;;4974892;28;20418;-71
2022/12/07 14:16:57;;;;;;;14.30;7.70;;;5.40;99.90;;;;;;4975154;28;20846;-71
2022/12/07 14:19:46;;;;;;;15.93;9.33;;;5.40;99.90;;;;;;4975161;28;20410;-75
2022/12/07 14:22:29;;;;;;;13.77;9.20;;;5.40;99.90;;;;;;4976024;28;20433;-73
2022/12/07 14:25:13;;;;;;;11.20;8.90;;;5.40;99.90;;;;;;4974822;28;20457;-76
2022/12/07 14:33:14;;;;;;;19.93;11.53;;;5.40;99.90;;;;;;5953965;23;20389;-69
2022/12/07 14:38:15;;;;;;;9.40;6.87;;;5.40;99.90;;;;;;5081393;23;20940;-69
2022/12/07 14:40:41;;;;;;;8.90;5.50;;;5.40;99.90;;;;;;5011244;28;20460;-69
2022/12/07 14:43:12;;;;;;;6.97;5.00;;;5.30;99.90;;;;;;5009393;28;20209;-69
2022/12/07 14:45:39;;;;;;;6.63;5.43;;;5.30;99.90;;;;;;5003951;28;21169;-67
2022/12/07 14:48:05;;;;;;;31.50;13.27;;;5.30;99.90;;;;;;5012618;28;20408;-70
2022/12/07 14:50:37;;;;;;;8.10;6.90;;;5.30;99.90;;;;;;5015468;28;20837;-69